sensor_id;sensor_type;location;lat;lon;timestamp;pressure;altitude;pressure_sealevel;temperature;humidity
38303;BME280;24103;42.454;27.400;2023-04-28T00:00:43;100916.28;;;10.32;100.00
38303;BME280;24103;42.454;27.400;2023-04-28T00:03:08;100913.91;;;10.26;100.00
38303;BME280;24103;42.454;27.400;2023-04-28T00:05:34;100912.91;;;10.28;100.00
38303;BME280;24103;42.454;27.400;2023-04-28T00:08:00;100908.34;;;10.32;100.00
38303;BME280;24103;42.454;27.400;2023-04-28T00:10:27;100913.06;;;10.25;100.00
38303;BME280;24103;42.454;27.400;2023-04-28T00:12:53;100901.03;;;10.20;100.00
38303;BME280;24103;42.454;27.400;2023-04-28T00:15:18;100897.84;;;10.13;100.00
38303;BME280;24103;42.454;27.400;2023-04-28T00:17:44;100893.63;;;10.09;100.00
38303;BME280;24103;42.454;27.400;2023-04-28T00:20:10;100890.31;;;10.05;100.00
38303;BME280;24103;42.454;27.400;2023-04-28T00:22:35;100889.19;;;10.09;99.68
38303;BME280;24103;42.454;27.400;2023-04-28T00:25:01;100881.28;;;10.09;94.98
38303;BME280;24103;42.454;27.400;2023-04-28T00:27:27;100885.03;;;10.05;92.23
38303;BME280;24103;42.454;27.400;2023-04-28T00:29:53;100884.88;;;10.08;91.09
38303;BME280;24103;42.454;27.400;2023-04-28T00:32:18;100878.09;;;10.03;90.25
38303;BME280;24103;42.454;27.400;2023-04-28T00:34:44;100879.13;;;10.00;89.67
38303;BME280;24103;42.454;27.400;2023-04-28T00:37:10;100879.34;;;9.95;88.99
38303;BME280;24103;42.454;27.400;2023-04-28T00:39:35;100888.53;;;9.88;89.64
38303;BME280;24103;42.454;27.400;2023-04-28T00:42:01;100886.31;;;9.79;90.12
38303;BME280;24103;42.454;27.400;2023-04-28T00:44:28;100895.47;;;9.72;90.04
38303;BME280;24103;42.454;27.400;2023-04-28T00:46:53;100890.75;;;9.78;91.62
38303;BME280;24103;42.454;27.400;2023-04-28T00:49:20;100900.97;;;9.85;92.08
38303;BME280;24103;42.454;27.400;2023-04-28T00:51:45;100901.88;;;9.85;92.35
38303;BME280;24103;42.454;27.400;2023-04-28T00:54:14;100907.66;;;9.74;96.23
38303;BME280;24103;42.454;27.400;2023-04-28T00:56:39;100900.03;;;9.68;92.65
38303;BME280;24103;42.454;27.400;2023-04-28T00:59:05;100902.59;;;9.70;90.27
38303;BME280;24103;42.454;27.400;2023-04-28T01:01:31;100906.81;;;9.74;88.05
38303;BME280;24103;42.454;27.400;2023-04-28T01:03:56;100897.03;;;9.76;81.55
38303;BME280;24103;42.454;27.400;2023-04-28T01:06:22;100888.19;;;9.77;79.70
38303;BME280;24103;42.454;27.400;2023-04-28T01:08:48;100874.78;;;9.82;78.13
38303;BME280;24103;42.454;27.400;2023-04-28T01:11:17;100886.25;;;9.81;74.75
38303;BME280;24103;42.454;27.400;2023-04-28T01:13:43;100883.13;;;9.90;71.51
38303;BME280;24103;42.454;27.400;2023-04-28T01:16:08;100872.13;;;9.99;64.14
38303;BME280;24103;42.454;27.400;2023-04-28T01:18:34;100873.78;;;10.02;61.49
38303;BME280;24103;42.454;27.400;2023-04-28T01:20:59;100876.41;;;10.02;60.87
38303;BME280;24103;42.454;27.400;2023-04-28T01:23:25;100879.06;;;10.02;61.40
38303;BME280;24103;42.454;27.400;2023-04-28T01:25:50;100866.53;;;10.05;62.17
38303;BME280;24103;42.454;27.400;2023-04-28T01:28:16;100873.69;;;10.03;62.03
38303;BME280;24103;42.454;27.400;2023-04-28T01:30:41;100873.44;;;10.08;59.86
38303;BME280;24103;42.454;27.400;2023-04-28T01:33:07;100877.78;;;10.09;60.23
38303;BME280;24103;42.454;27.400;2023-04-28T01:35:32;100873.50;;;10.06;59.08
38303;BME280;24103;42.454;27.400;2023-04-28T01:37:57;100871.34;;;10.14;56.22
38303;BME280;24103;42.454;27.400;2023-04-28T01:40:23;100865.06;;;10.17;55.07
38303;BME280;24103;42.454;27.400;2023-04-28T01:42:48;100866.78;;;10.18;54.21
38303;BME280;24103;42.454;27.400;2023-04-28T01:45:14;100870.34;;;10.17;55.96
38303;BME280;24103;42.454;27.400;2023-04-28T01:47:39;100864.16;;;10.18;55.11
38303;BME280;24103;42.454;27.400;2023-04-28T01:50:05;100865.81;;;10.19;55.07
38303;BME280;24103;42.454;27.400;2023-04-28T01:52:31;100865.91;;;10.18;55.45
38303;BME280;24103;42.454;27.400;2023-04-28T01:54:56;100876.72;;;10.13;55.70
38303;BME280;24103;42.454;27.400;2023-04-28T01:57:22;100871.25;;;10.16;54.08
38303;BME280;24103;42.454;27.400;2023-04-28T01:59:47;100878.41;;;10.14;55.37
38303;BME280;24103;42.454;27.400;2023-04-28T02:02:13;100879.25;;;10.14;54.15
38303;BME280;24103;42.454;27.400;2023-04-28T02:04:38;100868.81;;;10.13;54.29
38303;BME280;24103;42.454;27.400;2023-04-28T02:07:04;100881.13;;;10.12;55.80
38303;BME280;24103;42.454;27.400;2023-04-28T02:09:30;100882.84;;;10.13;56.04
38303;BME280;24103;42.454;27.400;2023-04-28T02:11:56;100882.31;;;10.07;56.01
38303;BME280;24103;42.454;27.400;2023-04-28T02:14:22;100886.81;;;10.05;56.39
38303;BME280;24103;42.454;27.400;2023-04-28T02:16:48;100886.91;;;10.03;57.12
38303;BME280;24103;42.454;27.400;2023-04-28T02:19:14;100892.47;;;9.97;58.70
38303;BME280;24103;42.454;27.400;2023-04-28T02:21:41;100897.91;;;9.94;59.51
38303;BME280;24103;42.454;27.400;2023-04-28T02:24:07;100904.09;;;9.93;61.91
38303;BME280;24103;42.454;27.400;2023-04-28T02:26:33;100912.50;;;9.84;64.63
38303;BME280;24103;42.454;27.400;2023-04-28T02:28:59;100916.41;;;9.75;65.97
38303;BME280;24103;42.454;27.400;2023-04-28T02:31:25;100913.69;;;9.76;67.30
38303;BME280;24103;42.454;27.400;2023-04-28T02:33:51;100919.44;;;9.67;70.01
38303;BME280;24103;42.454;27.400;2023-04-28T02:36:17;100920.28;;;9.68;67.76
38303;BME280;24103;42.454;27.400;2023-04-28T02:38:43;100910.28;;;9.74;66.81
38303;BME280;24103;42.454;27.400;2023-04-28T02:41:09;100918.06;;;9.77;65.22
38303;BME280;24103;42.454;27.400;2023-04-28T02:43:35;100919.25;;;9.89;63.24
38303;BME280;24103;42.454;27.400;2023-04-28T02:46:02;100909.16;;;9.80;65.05
38303;BME280;24103;42.454;27.400;2023-04-28T02:48:27;100919.53;;;9.83;63.85
38303;BME280;24103;42.454;27.400;2023-04-28T02:50:53;100918.97;;;9.76;66.34
38303;BME280;24103;42.454;27.400;2023-04-28T02:53:19;100932.91;;;9.80;67.59
38303;BME280;24103;42.454;27.400;2023-04-28T02:55:45;100930.25;;;9.80;66.77
38303;BME280;24103;42.454;27.400;2023-04-28T02:58:11;100941.81;;;9.77;69.35
38303;BME280;24103;42.454;27.400;2023-04-28T03:00:36;100955.34;;;9.70;72.04
38303;BME280;24103;42.454;27.400;2023-04-28T03:03:02;100965.09;;;9.50;79.47
38303;BME280;24103;42.454;27.400;2023-04-28T03:05:28;100977.19;;;9.54;83.79
38303;BME280;24103;42.454;27.400;2023-04-28T03:07:53;100975.56;;;9.33;88.23
38303;BME280;24103;42.454;27.400;2023-04-28T03:10:19;100985.34;;;9.31;90.72
38303;BME280;24103;42.454;27.400;2023-04-28T03:12:44;100993.56;;;9.23;97.20
38303;BME280;24103;42.454;27.400;2023-04-28T03:15:10;100998.53;;;9.31;95.52
38303;BME280;24103;42.454;27.400;2023-04-28T03:17:36;101007.53;;;9.25;98.33
38303;BME280;24103;42.454;27.400;2023-04-28T03:20:06;101006.63;;;9.26;96.83
38303;BME280;24103;42.454;27.400;2023-04-28T03:22:32;101004.31;;;9.18;98.59
38303;BME280;24103;42.454;27.400;2023-04-28T03:24:58;101013.63;;;9.07;100.00
38303;BME280;24103;42.454;27.400;2023-04-28T03:27:23;101008.56;;;9.02;98.70
38303;BME280;24103;42.454;27.400;2023-04-28T03:29:49;101020.69;;;9.06;94.76
38303;BME280;24103;42.454;27.400;2023-04-28T03:32:14;101020.34;;;9.14;97.25
38303;BME280;24103;42.454;27.400;2023-04-28T03:34:40;101030.69;;;9.18;98.83
38303;BME280;24103;42.454;27.400;2023-04-28T03:37:05;101023.09;;;9.31;99.21
38303;BME280;24103;42.454;27.400;2023-04-28T03:39:31;101027.78;;;9.25;96.78
38303;BME280;24103;42.454;27.400;2023-04-28T03:41:56;101041.56;;;9.31;98.37
38303;BME280;24103;42.454;27.400;2023-04-28T03:44:22;101036.22;;;9.33;94.72
38303;BME280;24103;42.454;27.400;2023-04-28T03:46:48;101031.53;;;9.39;91.73
38303;BME280;24103;42.454;27.400;2023-04-28T03:49:14;101032.66;;;9.34;90.12
38303;BME280;24103;42.454;27.400;2023-04-28T03:51:39;101030.47;;;9.63;87.55
38303;BME280;24103;42.454;27.400;2023-04-28T03:54:05;101034.41;;;9.54;89.04
38303;BME280;24103;42.454;27.400;2023-04-28T03:56:31;101045.53;;;9.61;89.81
38303;BME280;24103;42.454;27.400;2023-04-28T03:58:57;101045.38;;;9.64;92.58
38303;BME280;24103;42.454;27.400;2023-04-28T04:01:22;101050.81;;;9.61;93.83
38303;BME280;24103;42.454;27.400;2023-04-28T04:03:48;101045.72;;;9.56;88.95
38303;BME280;24103;42.454;27.400;2023-04-28T04:06:14;101055.34;;;9.76;89.90
38303;BME280;24103;42.454;27.400;2023-04-28T04:08:39;101055.63;;;9.70;88.30
38303;BME280;24103;42.454;27.400;2023-04-28T04:11:05;101053.66;;;9.94;85.56
38303;BME280;24103;42.454;27.400;2023-04-28T04:13:30;101055.22;;;9.79;85.41
38303;BME280;24103;42.454;27.400;2023-04-28T04:15:56;101061.56;;;9.75;89.98
38303;BME280;24103;42.454;27.400;2023-04-28T04:18:22;101060.16;;;9.87;92.69
38303;BME280;24103;42.454;27.400;2023-04-28T04:20:47;101062.63;;;9.90;90.36
38303;BME280;24103;42.454;27.400;2023-04-28T04:23:14;101071.41;;;9.90;95.24
38303;BME280;24103;42.454;27.400;2023-04-28T04:25:39;101071.56;;;9.87;89.67
38303;BME280;24103;42.454;27.400;2023-04-28T04:28:05;101066.91;;;9.92;83.80
38303;BME280;24103;42.454;27.400;2023-04-28T04:30:30;101070.47;;;9.91;85.99
38303;BME280;24103;42.454;27.400;2023-04-28T04:32:56;101076.75;;;9.89;88.23
38303;BME280;24103;42.454;27.400;2023-04-28T04:35:21;101068.63;;;9.93;85.98
38303;BME280;24103;42.454;27.400;2023-04-28T04:37:47;101088.59;;;9.99;95.01
38303;BME280;24103;42.454;27.400;2023-04-28T04:40:12;101078.25;;;10.13;87.51
38303;BME280;24103;42.454;27.400;2023-04-28T04:42:37;101085.78;;;10.21;88.11
38303;BME280;24103;42.454;27.400;2023-04-28T04:45:03;101074.31;;;10.22;82.83
38303;BME280;24103;42.454;27.400;2023-04-28T04:47:29;101083.09;;;10.42;78.89
38303;BME280;24103;42.454;27.400;2023-04-28T04:49:54;101082.81;;;10.65;79.19
38303;BME280;24103;42.454;27.400;2023-04-28T04:52:20;101073.09;;;10.83;76.48
38303;BME280;24103;42.454;27.400;2023-04-28T04:54:46;101068.19;;;11.61;74.13
38303;BME280;24103;42.454;27.400;2023-04-28T04:57:11;101042.13;;;13.39;60.46
38303;BME280;24103;42.454;27.400;2023-04-28T04:59:37;101009.72;;;15.10;53.09
38303;BME280;24103;42.454;27.400;2023-04-28T05:02:03;100992.09;;;15.96;48.41
38303;BME280;24103;42.454;27.400;2023-04-28T05:04:28;100977.53;;;17.40;45.75
38303;BME280;24103;42.454;27.400;2023-04-28T05:06:54;100956.56;;;18.23;42.67
38303;BME280;24103;42.454;27.400;2023-04-28T05:09:20;100945.88;;;18.02;39.24
38303;BME280;24103;42.454;27.400;2023-04-28T05:11:47;100922.34;;;19.71;35.47
38303;BME280;24103;42.454;27.400;2023-04-28T05:14:12;100922.25;;;20.41;35.38
38303;BME280;24103;42.454;27.400;2023-04-28T05:16:38;100917.09;;;21.42;33.66
38303;BME280;24103;42.454;27.400;2023-04-28T05:19:03;100890.00;;;22.07;31.07
38303;BME280;24103;42.454;27.400;2023-04-28T05:21:29;100878.31;;;22.95;30.17
38303;BME280;24103;42.454;27.400;2023-04-28T05:23:55;100877.63;;;23.36;28.96
38303;BME280;24103;42.454;27.400;2023-04-28T05:26:22;100872.38;;;23.26;28.88
38303;BME280;24103;42.454;27.400;2023-04-28T05:28:47;100879.16;;;23.39;28.20
38303;BME280;24103;42.454;27.400;2023-04-28T05:31:13;100886.63;;;23.53;28.61
38303;BME280;24103;42.454;27.400;2023-04-28T05:33:38;100887.38;;;23.29;28.29
38303;BME280;24103;42.454;27.400;2023-04-28T05:36:04;100889.22;;;23.20;27.30
38303;BME280;24103;42.454;27.400;2023-04-28T05:38:30;100881.84;;;23.39;26.62
38303;BME280;24103;42.454;27.400;2023-04-28T05:40:57;100886.47;;;23.63;26.30
38303;BME280;24103;42.454;27.400;2023-04-28T05:43:22;100887.19;;;23.89;26.10
38303;BME280;24103;42.454;27.400;2023-04-28T05:45:47;100888.66;;;23.76;26.59
38303;BME280;24103;42.454;27.400;2023-04-28T05:48:13;100912.69;;;22.41;27.49
38303;BME280;24103;42.454;27.400;2023-04-28T05:50:38;100907.63;;;21.66;27.83
38303;BME280;24103;42.454;27.400;2023-04-28T05:53:04;100905.53;;;22.32;27.98
38303;BME280;24103;42.454;27.400;2023-04-28T05:55:30;100909.66;;;22.70;27.14
38303;BME280;24103;42.454;27.400;2023-04-28T05:57:55;100906.28;;;23.03;26.99
38303;BME280;24103;42.454;27.400;2023-04-28T06:00:21;100901.31;;;23.16;26.53
38303;BME280;24103;42.454;27.400;2023-04-28T06:02:46;100914.91;;;22.45;26.66
38303;BME280;24103;42.454;27.400;2023-04-28T06:05:12;100915.00;;;22.36;27.05
38303;BME280;24103;42.454;27.400;2023-04-28T06:07:37;100907.81;;;22.26;25.78
38303;BME280;24103;42.454;27.400;2023-04-28T06:10:03;100895.91;;;23.08;25.16
38303;BME280;24103;42.454;27.400;2023-04-28T06:12:30;100901.59;;;23.47;25.10
38303;BME280;24103;42.454;27.400;2023-04-28T06:14:55;100893.78;;;23.95;24.37
38303;BME280;24103;42.454;27.400;2023-04-28T06:17:21;100894.56;;;22.77;24.61
38303;BME280;24103;42.454;27.400;2023-04-28T06:19:46;100891.75;;;23.22;25.00
38303;BME280;24103;42.454;27.400;2023-04-28T06:22:12;100894.53;;;23.04;24.11
38303;BME280;24103;42.454;27.400;2023-04-28T06:24:37;100892.19;;;22.74;24.43
38303;BME280;24103;42.454;27.400;2023-04-28T06:27:05;100905.97;;;23.40;26.00
38303;BME280;24103;42.454;27.400;2023-04-28T06:32:50;100881.31;;;23.86;24.19
38303;BME280;24103;42.454;27.400;2023-04-28T06:35:16;100897.91;;;23.57;24.43
38303;BME280;24103;42.454;27.400;2023-04-28T06:37:41;100894.19;;;22.46;22.82
38303;BME280;24103;42.454;27.400;2023-04-28T06:40:08;100888.56;;;20.76;23.42
38303;BME280;24103;42.454;27.400;2023-04-28T06:42:34;100890.72;;;21.74;23.60
38303;BME280;24103;42.454;27.400;2023-04-28T06:44:59;100894.91;;;22.82;23.96
38303;BME280;24103;42.454;27.400;2023-04-28T06:47:24;100902.53;;;22.87;23.42
38303;BME280;24103;42.454;27.400;2023-04-28T06:49:50;100902.38;;;23.23;22.85
38303;BME280;24103;42.454;27.400;2023-04-28T06:52:16;100892.19;;;23.51;23.28
38303;BME280;24103;42.454;27.400;2023-04-28T06:54:42;100886.22;;;23.31;23.25
38303;BME280;24103;42.454;27.400;2023-04-28T06:57:07;100900.28;;;23.51;23.36
38303;BME280;24103;42.454;27.400;2023-04-28T06:59:33;100894.75;;;23.78;23.18
38303;BME280;24103;42.454;27.400;2023-04-28T07:01:59;100898.97;;;23.80;23.74
38303;BME280;24103;42.454;27.400;2023-04-28T07:04:25;100879.59;;;24.18;21.62
38303;BME280;24103;42.454;27.400;2023-04-28T07:06:51;100890.22;;;23.19;23.37
38303;BME280;24103;42.454;27.400;2023-04-28T07:09:16;100901.94;;;23.02;24.96
38303;BME280;24103;42.454;27.400;2023-04-28T07:11:43;100906.19;;;23.12;21.78
38303;BME280;24103;42.454;27.400;2023-04-28T07:14:10;100893.16;;;20.36;24.43
38303;BME280;24103;42.454;27.400;2023-04-28T07:16:35;100916.59;;;19.15;26.66
38303;BME280;24103;42.454;27.400;2023-04-28T07:19:01;100903.69;;;21.05;25.61
38303;BME280;24103;42.454;27.400;2023-04-28T07:21:26;100904.31;;;22.08;24.63
38303;BME280;24103;42.454;27.400;2023-04-28T07:23:53;100899.69;;;19.75;25.76
38303;BME280;24103;42.454;27.400;2023-04-28T07:26:22;100909.13;;;20.09;26.87
38303;BME280;24103;42.454;27.400;2023-04-28T07:28:47;100909.66;;;19.13;26.32
38303;BME280;24103;42.454;27.400;2023-04-28T07:31:13;100926.09;;;18.99;27.22
38303;BME280;24103;42.454;27.400;2023-04-28T07:33:38;100906.19;;;18.70;28.20
38303;BME280;24103;42.454;27.400;2023-04-28T07:36:04;100918.69;;;19.62;27.47
38303;BME280;24103;42.454;27.400;2023-04-28T07:38:30;100890.22;;;20.77;25.05
38303;BME280;24103;42.454;27.400;2023-04-28T07:40:55;100883.81;;;21.25;25.11
38303;BME280;24103;42.454;27.400;2023-04-28T07:43:21;100898.53;;;20.17;26.81
38303;BME280;24103;42.454;27.400;2023-04-28T07:45:46;100910.09;;;18.56;28.91
38303;BME280;24103;42.454;27.400;2023-04-28T07:48:14;100915.50;;;16.69;29.15
38303;BME280;24103;42.454;27.400;2023-04-28T07:50:39;100921.50;;;16.01;30.21
38303;BME280;24103;42.454;27.400;2023-04-28T07:53:05;100918.59;;;16.51;31.80
38303;BME280;24103;42.454;27.400;2023-04-28T07:55:30;100916.47;;;18.44;31.10
38303;BME280;24103;42.454;27.400;2023-04-28T07:57:56;100911.06;;;19.17;27.64
38303;BME280;24103;42.454;27.400;2023-04-28T08:00:23;100894.34;;;18.94;27.64
38303;BME280;24103;42.454;27.400;2023-04-28T08:02:49;100905.91;;;18.42;30.14
38303;BME280;24103;42.454;27.400;2023-04-28T08:05:15;100910.84;;;17.61;29.31
38303;BME280;24103;42.454;27.400;2023-04-28T08:07:41;100919.25;;;17.45;30.29
38303;BME280;24103;42.454;27.400;2023-04-28T08:10:09;100911.19;;;17.13;29.93
38303;BME280;24103;42.454;27.400;2023-04-28T08:12:34;100930.22;;;16.97;31.91
38303;BME280;24103;42.454;27.400;2023-04-28T08:15:00;100906.03;;;16.53;30.13
38303;BME280;24103;42.454;27.400;2023-04-28T08:17:26;100914.66;;;16.21;30.22
38303;BME280;24103;42.454;27.400;2023-04-28T08:19:51;100920.34;;;16.64;34.83
38303;BME280;24103;42.454;27.400;2023-04-28T08:22:17;100927.50;;;16.74;32.05
38303;BME280;24103;42.454;27.400;2023-04-28T08:24:43;100918.59;;;16.98;30.22
38303;BME280;24103;42.454;27.400;2023-04-28T08:27:09;100911.91;;;17.15;30.18
38303;BME280;24103;42.454;27.400;2023-04-28T08:29:34;100905.94;;;16.89;32.06
38303;BME280;24103;42.454;27.400;2023-04-28T08:32:00;100903.16;;;17.13;30.39
38303;BME280;24103;42.454;27.400;2023-04-28T08:34:26;100911.84;;;17.49;31.29
38303;BME280;24103;42.454;27.400;2023-04-28T08:36:52;100896.19;;;17.88;29.98
38303;BME280;24103;42.454;27.400;2023-04-28T08:39:18;100903.28;;;18.10;30.83
38303;BME280;24103;42.454;27.400;2023-04-28T08:41:45;100886.72;;;18.16;28.77
38303;BME280;24103;42.454;27.400;2023-04-28T08:44:10;100879.47;;;18.07;27.99
38303;BME280;24103;42.454;27.400;2023-04-28T08:46:40;100888.19;;;17.77;29.51
38303;BME280;24103;42.454;27.400;2023-04-28T08:49:13;100899.50;;;18.13;30.30
38303;BME280;24103;42.454;27.400;2023-04-28T08:51:44;100887.50;;;18.07;29.73
38303;BME280;24103;42.454;27.400;2023-04-28T08:54:14;100894.31;;;18.00;30.43
38303;BME280;24103;42.454;27.400;2023-04-28T08:56:44;100893.75;;;17.85;30.79
38303;BME280;24103;42.454;27.400;2023-04-28T08:59:11;100895.75;;;17.72;30.98
38303;BME280;24103;42.454;27.400;2023-04-28T09:01:38;100888.59;;;17.72;30.70
38303;BME280;24103;42.454;27.400;2023-04-28T09:04:04;100889.63;;;17.37;29.54
38303;BME280;24103;42.454;27.400;2023-04-28T09:06:34;100886.56;;;17.53;29.41
38303;BME280;24103;42.454;27.400;2023-04-28T09:09:23;100880.59;;;17.06;28.78
38303;BME280;24103;42.454;27.400;2023-04-28T09:12:00;100886.47;;;17.43;29.72
38303;BME280;24103;42.454;27.400;2023-04-28T09:14:30;100888.69;;;17.27;30.20
38303;BME280;24103;42.454;27.400;2023-04-28T09:16:57;100886.66;;;17.08;31.83
38303;BME280;24103;42.454;27.400;2023-04-28T09:19:23;100891.28;;;16.94;32.17
38303;BME280;24103;42.454;27.400;2023-04-28T09:21:54;100885.31;;;16.68;31.50
38303;BME280;24103;42.454;27.400;2023-04-28T09:24:39;100881.03;;;17.34;31.97
38303;BME280;24103;42.454;27.400;2023-04-28T09:27:09;100891.16;;;17.74;31.54
38303;BME280;24103;42.454;27.400;2023-04-28T09:29:51;100895.56;;;17.52;31.33
38303;BME280;24103;42.454;27.400;2023-04-28T09:32:19;100888.34;;;17.09;30.97
38303;BME280;24103;42.454;27.400;2023-04-28T09:34:47;100886.03;;;16.82;31.65
38303;BME280;24103;42.454;27.400;2023-04-28T09:37:17;100891.41;;;16.93;31.54
38303;BME280;24103;42.454;27.400;2023-04-28T09:39:51;100889.47;;;17.06;29.97
38303;BME280;24103;42.454;27.400;2023-04-28T09:44:58;100867.19;;;17.40;29.38
38303;BME280;24103;42.454;27.400;2023-04-28T09:47:24;100867.50;;;17.58;29.48
38303;BME280;24103;42.454;27.400;2023-04-28T09:49:57;100867.94;;;17.74;30.27
38303;BME280;24103;42.454;27.400;2023-04-28T09:52:24;100856.31;;;17.85;30.02
38303;BME280;24103;42.454;27.400;2023-04-28T09:54:51;100873.00;;;17.45;30.87
38303;BME280;24103;42.454;27.400;2023-04-28T09:57:17;100875.50;;;17.03;29.70
38303;BME280;24103;42.454;27.400;2023-04-28T09:59:46;100857.91;;;17.11;29.95
38303;BME280;24103;42.454;27.400;2023-04-28T10:02:14;100865.31;;;17.52;31.42
38303;BME280;24103;42.454;27.400;2023-04-28T10:04:43;100858.00;;;17.21;31.41
38303;BME280;24103;42.454;27.400;2023-04-28T10:07:10;100859.00;;;16.98;31.41
38303;BME280;24103;42.454;27.400;2023-04-28T10:09:37;100868.22;;;17.16;33.01
38303;BME280;24103;42.454;27.400;2023-04-28T10:12:03;100867.31;;;17.27;31.59
38303;BME280;24103;42.454;27.400;2023-04-28T10:14:30;100863.13;;;17.57;32.52
38303;BME280;24103;42.454;27.400;2023-04-28T10:16:57;100855.72;;;16.94;32.50
38303;BME280;24103;42.454;27.400;2023-04-28T10:19:24;100876.13;;;17.06;33.21
38303;BME280;24103;42.454;27.400;2023-04-28T10:27:29;100850.94;;;17.31;30.67
38303;BME280;24103;42.454;27.400;2023-04-28T10:32:37;100849.53;;;17.48;31.31
38303;BME280;24103;42.454;27.400;2023-04-28T10:38:08;100848.69;;;17.59;31.38
38303;BME280;24103;42.454;27.400;2023-04-28T10:40:38;100859.69;;;17.22;29.94
38303;BME280;24103;42.454;27.400;2023-04-28T10:43:04;100849.31;;;17.40;30.49
38303;BME280;24103;42.454;27.400;2023-04-28T10:48:19;100837.94;;;17.38;30.54
38303;BME280;24103;42.454;27.400;2023-04-28T10:56:12;100843.94;;;16.74;31.67
38303;BME280;24103;42.454;27.400;2023-04-28T10:58:44;100858.38;;;17.17;32.23
38303;BME280;24103;42.454;27.400;2023-04-28T11:06:33;100842.97;;;17.09;30.95
38303;BME280;24103;42.454;27.400;2023-04-28T11:12:05;100853.81;;;16.96;32.37
38303;BME280;24103;42.454;27.400;2023-04-28T11:14:33;100856.09;;;16.78;32.80
38303;BME280;24103;42.454;27.400;2023-04-28T11:17:11;100855.25;;;16.89;32.76
38303;BME280;24103;42.454;27.400;2023-04-28T11:19:39;100842.97;;;16.98;30.81
38303;BME280;24103;42.454;27.400;2023-04-28T11:22:15;100856.19;;;17.22;30.99
38303;BME280;24103;42.454;27.400;2023-04-28T11:24:56;100837.72;;;17.19;30.61
38303;BME280;24103;42.454;27.400;2023-04-28T11:27:23;100845.97;;;17.27;30.20
38303;BME280;24103;42.454;27.400;2023-04-28T11:29:49;100842.09;;;17.31;32.37
38303;BME280;24103;42.454;27.400;2023-04-28T11:32:15;100853.28;;;16.80;30.72
38303;BME280;24103;42.454;27.400;2023-04-28T11:34:40;100843.97;;;16.97;32.44
38303;BME280;24103;42.454;27.400;2023-04-28T11:37:06;100844.94;;;16.95;31.13
38303;BME280;24103;42.454;27.400;2023-04-28T11:39:33;100844.41;;;16.79;31.14
38303;BME280;24103;42.454;27.400;2023-04-28T11:42:01;100852.81;;;16.63;33.04
38303;BME280;24103;42.454;27.400;2023-04-28T11:44:29;100844.66;;;16.53;32.79
38303;BME280;24103;42.454;27.400;2023-04-28T11:46:59;100850.00;;;16.42;32.70
38303;BME280;24103;42.454;27.400;2023-04-28T11:49:46;100852.06;;;16.72;31.07
38303;BME280;24103;42.454;27.400;2023-04-28T11:52:12;100852.06;;;17.18;31.25
38303;BME280;24103;42.454;27.400;2023-04-28T11:54:38;100858.03;;;17.10;31.74
38303;BME280;24103;42.454;27.400;2023-04-28T11:57:06;100846.59;;;16.51;30.98
38303;BME280;24103;42.454;27.400;2023-04-28T11:59:41;100855.81;;;16.47;32.30
38303;BME280;24103;42.454;27.400;2023-04-28T12:02:06;100845.75;;;16.62;32.37
38303;BME280;24103;42.454;27.400;2023-04-28T12:04:37;100844.19;;;17.16;31.63
38303;BME280;24103;42.454;27.400;2023-04-28T12:09:45;100822.25;;;17.77;30.30
38303;BME280;24103;42.454;27.400;2023-04-28T12:12:13;100846.50;;;17.53;31.97
38303;BME280;24103;42.454;27.400;2023-04-28T12:15:00;100840.88;;;17.24;32.06
38303;BME280;24103;42.454;27.400;2023-04-28T12:20:00;100831.59;;;16.73;30.97
38303;BME280;24103;42.454;27.400;2023-04-28T12:22:26;100850.22;;;16.39;33.13
38303;BME280;24103;42.454;27.400;2023-04-28T12:25:18;100852.22;;;16.13;33.78
38303;BME280;24103;42.454;27.400;2023-04-28T12:27:59;100849.63;;;16.35;33.66
38303;BME280;24103;42.454;27.400;2023-04-28T12:30:27;100845.72;;;16.28;33.96
38303;BME280;24103;42.454;27.400;2023-04-28T12:32:52;100845.94;;;16.14;32.50
38303;BME280;24103;42.454;27.400;2023-04-28T12:35:27;100844.38;;;16.23;32.40
38303;BME280;24103;42.454;27.400;2023-04-28T12:37:53;100830.59;;;16.40;31.79
38303;BME280;24103;42.454;27.400;2023-04-28T12:40:20;100824.03;;;16.33;31.35
38303;BME280;24103;42.454;27.400;2023-04-28T12:42:46;100827.16;;;16.27;30.62
38303;BME280;24103;42.454;27.400;2023-04-28T12:45:11;100824.06;;;16.67;32.17
38303;BME280;24103;42.454;27.400;2023-04-28T12:54:41;100830.09;;;16.46;32.48
38303;BME280;24103;42.454;27.400;2023-04-28T12:57:13;100828.16;;;16.37;32.45
38303;BME280;24103;42.454;27.400;2023-04-28T12:59:39;100828.00;;;16.16;32.82
38303;BME280;24103;42.454;27.400;2023-04-28T13:02:06;100835.16;;;16.27;34.30
38303;BME280;24103;42.454;27.400;2023-04-28T13:04:31;100823.16;;;16.21;33.74
38303;BME280;24103;42.454;27.400;2023-04-28T13:06:57;100821.47;;;16.09;32.57
38303;BME280;24103;42.454;27.400;2023-04-28T13:09:23;100821.38;;;15.86;31.93
38303;BME280;24103;42.454;27.400;2023-04-28T13:11:49;100812.00;;;16.16;32.48
38303;BME280;24103;42.454;27.400;2023-04-28T13:14:15;100806.09;;;16.35;32.91
38303;BME280;24103;42.454;27.400;2023-04-28T13:16:40;100801.59;;;16.58;32.45
38303;BME280;24103;42.454;27.400;2023-04-28T13:19:06;100809.72;;;16.79;32.51
38303;BME280;24103;42.454;27.400;2023-04-28T13:21:38;100809.00;;;16.54;31.49
38303;BME280;24103;42.454;27.400;2023-04-28T13:24:04;100804.28;;;16.47;33.61
38303;BME280;24103;42.454;27.400;2023-04-28T13:26:30;100803.66;;;16.43;31.98